createdAt,value
2022-12-03T00:00:31.878Z,113.75
2022-12-03T00:02:58.706Z,101.18
2022-12-03T00:05:25.530Z,120.85
2022-12-03T00:07:52.280Z,117.63
2022-12-03T00:10:19.263Z,112.15
2022-12-03T00:12:46.021Z,127.30
2022-12-03T00:15:13.092Z,109.38
2022-12-03T00:17:39.901Z,131.10
2022-12-03T00:20:20.150Z,120.35
2022-12-03T00:22:46.960Z,117.28
2022-12-03T00:25:13.802Z,119.75
2022-12-03T00:27:43.053Z,116.63
2022-12-03T00:34:04.254Z,112.65
2022-12-03T00:36:31.032Z,109.10
2022-12-03T00:38:57.806Z,120.45
2022-12-03T00:45:11.300Z,107.97
2022-12-03T00:47:38.122Z,102.95
2022-12-03T00:50:06.269Z,110.88
2022-12-03T00:52:33.059Z,108.57
2022-12-03T00:54:59.887Z,120.40
2022-12-03T00:57:26.643Z,91.75
2022-12-03T00:59:53.386Z,112.75
2022-12-03T01:02:20.278Z,99.43
2022-12-03T01:04:47.161Z,105.05
2022-12-03T01:07:14.092Z,96.40
2022-12-03T01:09:40.838Z,112.30
2022-12-03T01:12:07.761Z,102.50
2022-12-03T01:18:35.346Z,110.95
2022-12-03T01:21:02.103Z,98.63
2022-12-03T01:23:28.858Z,104.78
2022-12-03T01:25:55.601Z,106.13
2022-12-03T01:28:22.355Z,99.47
2022-12-03T01:31:07.600Z,93.68
2022-12-03T01:33:34.385Z,103.38
2022-12-03T01:36:01.127Z,99.30
2022-12-03T01:38:27.874Z,91.95
2022-12-03T01:40:54.918Z,100.38
2022-12-03T01:43:52.670Z,94.43
2022-12-03T01:46:23.395Z,90.65
2022-12-03T01:48:53.857Z,86.47
2022-12-03T01:51:20.872Z,93.75
2022-12-03T01:53:48.357Z,84.65
2022-12-03T01:56:17.109Z,88.15
2022-12-03T01:58:45.499Z,77.82
2022-12-03T02:01:17.452Z,79.72
2022-12-03T02:03:45.934Z,82.80
2022-12-03T02:06:19.177Z,80.93
2022-12-03T02:08:47.926Z,76.10
2022-12-03T02:11:19.786Z,74.20
2022-12-03T02:13:48.428Z,75.25
2022-12-03T02:16:15.298Z,69.53
2022-12-03T02:18:42.778Z,71.15
2022-12-03T02:21:41.816Z,74.80
2022-12-03T02:24:17.509Z,64.03
2022-12-03T02:26:44.262Z,83.15
2022-12-03T02:29:11.752Z,78.60
2022-12-03T02:31:38.677Z,79.75
2022-12-03T02:34:08.868Z,78.82
2022-12-03T02:36:36.715Z,81.10
2022-12-03T02:39:05.047Z,84.95
2022-12-03T02:41:50.688Z,89.05
2022-12-03T02:44:17.477Z,80.72
2022-12-03T02:46:44.370Z,86.53
2022-12-03T02:49:11.270Z,93.13
2022-12-03T02:51:38.115Z,83.15
2022-12-03T02:54:05.123Z,98.68
2022-12-03T02:56:33.104Z,93.88
2022-12-03T02:59:05.035Z,92.47
2022-12-03T03:01:32.508Z,91.88
2022-12-03T03:03:59.660Z,90.68
2022-12-03T03:06:26.856Z,93.63
2022-12-03T03:08:53.646Z,90.90
2022-12-03T03:11:20.564Z,96.60
2022-12-03T03:13:47.786Z,101.40
2022-12-03T03:16:14.775Z,90.65
2022-12-03T03:18:42.057Z,96.93
2022-12-03T03:21:09.050Z,101.50
2022-12-03T03:23:35.924Z,93.80
2022-12-03T03:26:06.573Z,88.97
2022-12-03T03:28:36.723Z,84.03
2022-12-03T03:31:05.496Z,95.38
2022-12-03T03:33:33.453Z,87.65
2022-12-03T03:36:26.269Z,90.85
2022-12-03T03:43:42.016Z,87.35
2022-12-03T03:54:24.207Z,84.03
2022-12-03T04:00:31.994Z,93.72
2022-12-03T04:02:58.748Z,101.68
2022-12-03T04:05:26.003Z,91.63
2022-12-03T04:11:57.400Z,92.18
2022-12-03T04:14:24.532Z,82.18
2022-12-03T04:16:56.652Z,94.72
2022-12-03T04:19:32.790Z,82.60
2022-12-03T04:22:17.924Z,90.43
2022-12-03T04:24:44.727Z,93.60
2022-12-03T04:27:31.002Z,88.90
2022-12-03T04:29:57.745Z,89.82
2022-12-03T04:32:42.910Z,92.45
2022-12-03T04:35:43.131Z,93.88
2022-12-03T04:38:11.350Z,89.00
2022-12-03T04:40:57.988Z,87.05
2022-12-03T04:43:24.739Z,89.75
2022-12-03T04:45:51.574Z,97.88
2022-12-03T04:48:18.441Z,87.68
2022-12-03T04:50:45.305Z,89.63
2022-12-03T04:53:12.177Z,97.75
2022-12-03T04:55:38.951Z,93.30
2022-12-03T04:58:06.569Z,89.03
2022-12-03T05:00:33.411Z,94.30
2022-12-03T05:03:00.240Z,97.22
2022-12-03T05:05:27.104Z,98.78
2022-12-03T05:07:53.936Z,88.25
2022-12-03T05:10:20.818Z,93.93
2022-12-03T05:12:47.580Z,107.50
2022-12-03T05:15:14.377Z,97.97
2022-12-03T05:17:41.107Z,100.97
2022-12-03T05:20:28.282Z,98.25
2022-12-03T05:22:55.102Z,80.68
2022-12-03T05:25:21.844Z,93.53
2022-12-03T05:27:48.574Z,99.82
2022-12-03T05:30:15.537Z,100.38
2022-12-03T05:32:42.282Z,97.13
2022-12-03T05:35:43.909Z,96.57
2022-12-03T05:38:46.094Z,100.38
2022-12-03T05:45:06.274Z,96.80
2022-12-03T05:51:19.488Z,119.43
2022-12-03T05:53:46.345Z,110.82
2022-12-03T05:56:13.142Z,101.57
2022-12-03T05:58:45.713Z,99.38
2022-12-03T06:01:20.387Z,100.57
2022-12-03T06:03:47.278Z,103.57
2022-12-03T06:06:30.225Z,99.40
2022-12-03T06:08:57.088Z,105.00
2022-12-03T06:11:42.240Z,112.75
2022-12-03T06:14:09.180Z,95.95
2022-12-03T06:16:35.933Z,120.03
2022-12-03T06:19:02.663Z,104.57
2022-12-03T06:21:33.424Z,109.28
2022-12-03T06:24:01.333Z,110.82
2022-12-03T06:26:30.078Z,101.15
2022-12-03T06:28:56.991Z,113.53
2022-12-03T06:35:07.326Z,101.32
2022-12-03T06:41:14.878Z,110.30
2022-12-03T06:43:41.597Z,105.38
2022-12-03T06:49:56.837Z,118.65
2022-12-03T06:52:24.113Z,125.47
2022-12-03T06:54:51.172Z,114.68
2022-12-03T06:57:18.118Z,107.80
2022-12-03T06:59:44.952Z,126.40
2022-12-03T07:02:12.864Z,114.78
2022-12-03T07:04:43.404Z,107.80
2022-12-03T07:07:13.030Z,107.88
2022-12-03T07:09:40.127Z,110.55
2022-12-03T07:12:06.977Z,110.13
2022-12-03T07:14:33.723Z,110.60
2022-12-03T07:17:00.462Z,108.63
2022-12-03T07:19:32.260Z,106.72
2022-12-03T07:21:59.764Z,115.32
2022-12-03T07:24:26.547Z,109.20
2022-12-03T07:26:53.293Z,118.65
2022-12-03T07:29:20.154Z,105.43
2022-12-03T07:31:47.052Z,103.20
2022-12-03T07:34:13.952Z,102.88
2022-12-03T07:36:40.698Z,95.28
2022-12-03T07:39:07.595Z,108.63
2022-12-03T07:41:34.334Z,112.35
2022-12-03T07:44:01.125Z,117.95
2022-12-03T07:46:28.047Z,116.18
2022-12-03T07:48:54.861Z,116.13
2022-12-03T07:51:21.702Z,127.90
2022-12-03T07:53:48.474Z,105.95
2022-12-03T07:56:15.298Z,103.97
2022-12-03T07:58:42.079Z,107.95
2022-12-03T08:01:10.333Z,111.05
2022-12-03T08:03:38.445Z,112.85
2022-12-03T08:06:05.399Z,106.85
2022-12-03T08:08:32.285Z,103.35
2022-12-03T08:10:59.005Z,106.63
2022-12-03T08:13:25.773Z,93.15
2022-12-03T08:15:52.898Z,99.68
2022-12-03T08:18:22.046Z,107.50
2022-12-03T08:20:51.150Z,108.10
2022-12-03T08:23:23.716Z,114.00
2022-12-03T08:25:51.552Z,121.38
2022-12-03T08:28:33.810Z,117.72
2022-12-03T08:31:08.001Z,113.38
2022-12-03T08:33:41.876Z,107.93
2022-12-03T08:36:22.855Z,105.57
2022-12-03T08:38:55.996Z,98.07
2022-12-03T08:41:42.670Z,104.65
2022-12-03T08:44:30.000Z,108.82
2022-12-03T08:47:10.344Z,94.65
2022-12-03T08:49:37.765Z,97.63
2022-12-03T08:52:15.057Z,100.57
2022-12-03T08:54:43.442Z,93.28
2022-12-03T08:57:31.488Z,101.60
2022-12-03T09:00:21.143Z,90.72
2022-12-03T09:02:51.293Z,84.75
2022-12-03T09:05:25.310Z,97.68
2022-12-03T09:07:52.106Z,95.10
2022-12-03T09:10:18.889Z,81.13
2022-12-03T09:12:45.652Z,79.82
2022-12-03T09:15:12.673Z,79.65
2022-12-03T09:17:39.641Z,87.57
2022-12-03T09:20:07.487Z,86.03
2022-12-03T09:22:34.590Z,86.97
2022-12-03T09:25:01.499Z,94.32
2022-12-03T09:27:28.311Z,115.53
2022-12-03T09:29:55.189Z,96.10
2022-12-03T09:32:22.106Z,82.07
2022-12-03T09:34:49.097Z,92.55
2022-12-03T09:37:16.420Z,89.60
2022-12-03T09:39:43.159Z,100.70
2022-12-03T09:42:10.986Z,89.30
2022-12-03T09:44:38.334Z,101.20
2022-12-03T09:47:05.333Z,101.80
2022-12-03T09:49:37.439Z,95.82
2022-12-03T09:52:05.714Z,89.72
2022-12-03T09:54:33.181Z,94.18
2022-12-03T09:57:02.666Z,89.68
2022-12-03T09:59:34.338Z,99.97
2022-12-03T10:02:02.777Z,91.63
2022-12-03T10:04:30.519Z,94.20
2022-12-03T10:06:58.790Z,83.13
2022-12-03T10:09:28.052Z,77.25
2022-12-03T10:11:57.395Z,77.32
2022-12-03T10:14:24.565Z,83.25
2022-12-03T10:16:51.617Z,74.00
2022-12-03T10:19:37.621Z,75.55
2022-12-03T10:22:04.413Z,73.07
2022-12-03T10:24:33.576Z,76.75
2022-12-03T10:27:20.335Z,78.70
2022-12-03T10:30:22.330Z,73.93
2022-12-03T10:32:51.194Z,73.85
2022-12-03T10:35:22.775Z,78.93
2022-12-03T10:38:02.983Z,70.03
2022-12-03T10:40:38.222Z,75.38
2022-12-03T10:43:21.045Z,68.00
2022-12-03T10:46:12.566Z,74.82
2022-12-03T10:48:39.453Z,70.28
2022-12-03T10:51:16.319Z,76.25
2022-12-03T10:53:43.346Z,76.43
2022-12-03T10:56:18.729Z,71.85
2022-12-03T10:58:45.530Z,72.43
2022-12-03T11:01:21.473Z,81.78
2022-12-03T11:03:49.267Z,81.30
2022-12-03T11:06:18.721Z,80.40
2022-12-03T11:08:53.010Z,81.30
2022-12-03T11:11:24.590Z,82.35
2022-12-03T11:13:57.534Z,76.82
2022-12-03T11:16:39.709Z,76.63
2022-12-03T11:19:12.485Z,79.40
2022-12-03T11:22:07.162Z,72.10
2022-12-03T11:24:39.575Z,66.35
2022-12-03T11:27:06.937Z,67.90
2022-12-03T11:29:49.923Z,65.18
2022-12-03T11:32:38.596Z,68.63
2022-12-03T11:35:23.977Z,70.00
2022-12-03T11:37:51.146Z,62.63
2022-12-03T11:40:17.820Z,64.22
2022-12-03T11:42:46.843Z,73.85
2022-12-03T11:45:30.971Z,64.28
2022-12-03T11:48:15.386Z,60.45
2022-12-03T11:50:50.534Z,58.60
2022-12-03T11:53:19.997Z,64.78
2022-12-03T11:56:04.516Z,58.35
2022-12-03T11:58:32.374Z,61.95
2022-12-03T12:01:01.626Z,66.53
2022-12-03T12:03:36.907Z,64.55
2022-12-03T12:06:12.915Z,58.42
2022-12-03T12:08:42.275Z,55.13
2022-12-03T12:11:33.145Z,61.78
2022-12-03T12:14:13.508Z,57.50
2022-12-03T12:16:50.782Z,59.72
2022-12-03T12:19:34.512Z,50.90
2022-12-03T12:22:20.878Z,54.28
2022-12-03T12:24:54.230Z,56.58
2022-12-03T12:27:31.060Z,53.53
2022-12-03T12:30:00.811Z,57.53
2022-12-03T12:32:41.922Z,59.03
2022-12-03T12:35:19.920Z,52.65
2022-12-03T12:38:02.659Z,58.08
2022-12-03T12:40:32.377Z,60.85
2022-12-03T12:43:13.184Z,60.17
2022-12-03T12:45:43.402Z,50.72
2022-12-03T12:48:13.233Z,53.30
2022-12-03T12:50:45.124Z,59.53
2022-12-03T12:53:34.281Z,55.63
2022-12-03T12:56:06.610Z,52.60
2022-12-03T12:58:33.803Z,62.90
2022-12-03T13:01:05.836Z,55.85
2022-12-03T13:03:34.917Z,61.92
2022-12-03T13:06:02.647Z,57.72
2022-12-03T13:08:42.704Z,59.88
2022-12-03T13:11:55.649Z,72.60
2022-12-03T13:14:24.700Z,56.92
2022-12-03T13:17:24.361Z,58.13
2022-12-03T13:20:02.015Z,57.72
2022-12-03T13:22:32.113Z,109.57
2022-12-03T13:25:44.029Z,77.20
2022-12-03T13:28:10.345Z,56.85
2022-12-03T13:30:37.094Z,54.33
2022-12-03T13:33:16.047Z,55.65
2022-12-03T13:35:43.315Z,52.42
2022-12-03T13:38:15.452Z,50.30
2022-12-03T13:40:42.515Z,56.88
2022-12-03T13:43:18.614Z,60.17
2022-12-03T13:45:48.928Z,52.72
2022-12-03T13:48:29.322Z,58.45
2022-12-03T13:50:57.097Z,55.45
2022-12-03T13:53:36.448Z,50.65
2022-12-03T13:56:24.839Z,56.33
2022-12-03T13:58:51.728Z,59.78
2022-12-03T14:01:18.675Z,58.70
2022-12-03T14:03:45.544Z,68.10
2022-12-03T14:06:12.295Z,65.32
2022-12-03T14:08:39.036Z,60.25
2022-12-03T14:11:06.108Z,60.88
2022-12-03T14:13:32.866Z,59.78
2022-12-03T14:15:59.785Z,58.30
2022-12-03T14:18:26.583Z,68.95
2022-12-03T14:20:53.343Z,67.88
2022-12-03T14:23:20.111Z,74.25
2022-12-03T14:25:46.868Z,68.75
2022-12-03T14:28:13.618Z,71.68
2022-12-03T14:30:40.398Z,79.53
2022-12-03T14:33:07.133Z,67.57
2022-12-03T14:35:33.923Z,75.82
2022-12-03T14:38:00.751Z,68.80
2022-12-03T14:40:27.560Z,70.50
2022-12-03T14:42:54.348Z,62.75
2022-12-03T14:45:21.130Z,69.90
2022-12-03T14:47:47.858Z,75.88
2022-12-03T14:50:14.736Z,80.43
2022-12-03T14:52:41.941Z,77.18
2022-12-03T14:55:09.216Z,77.90
2022-12-03T14:57:35.953Z,75.00
2022-12-03T15:00:02.919Z,82.57
2022-12-03T15:02:30.426Z,76.20
2022-12-03T15:04:57.436Z,71.18
2022-12-03T15:07:24.211Z,80.65
2022-12-03T15:09:51.041Z,95.40
2022-12-03T15:12:17.844Z,88.30
2022-12-03T15:14:44.669Z,83.55
2022-12-03T15:17:11.501Z,93.00
2022-12-03T15:19:38.354Z,87.25
2022-12-03T15:22:05.126Z,82.85
2022-12-03T15:24:31.984Z,88.82
2022-12-03T15:26:58.778Z,77.50
2022-12-03T15:29:25.601Z,85.35
2022-12-03T15:31:52.460Z,89.07
2022-12-03T15:34:22.828Z,81.80
2022-12-03T15:36:50.150Z,82.50
2022-12-03T15:39:16.888Z,92.57
2022-12-03T15:41:43.626Z,87.60
2022-12-03T15:44:10.391Z,100.88
2022-12-03T15:46:37.263Z,96.53
2022-12-03T15:49:04.155Z,101.47
2022-12-03T15:51:30.949Z,91.97
2022-12-03T15:53:57.674Z,104.90
2022-12-03T15:56:24.601Z,95.15
2022-12-03T15:58:51.433Z,96.47
2022-12-03T16:01:18.602Z,96.43
2022-12-03T16:03:45.519Z,97.72
2022-12-03T16:06:12.739Z,96.32
2022-12-03T16:08:39.496Z,115.50
2022-12-03T16:11:06.449Z,93.60
2022-12-03T16:13:33.400Z,101.03
2022-12-03T16:16:00.241Z,98.00
2022-12-03T16:18:27.612Z,113.03
2022-12-03T16:20:54.446Z,103.50
2022-12-03T16:23:21.286Z,104.32
2022-12-03T16:25:48.058Z,94.95
2022-12-03T16:28:14.978Z,107.57
2022-12-03T16:30:41.916Z,112.25
2022-12-03T16:33:08.666Z,100.60
2022-12-03T16:35:35.439Z,96.13
2022-12-03T16:38:02.203Z,105.63
2022-12-03T16:40:29.022Z,115.00
2022-12-03T16:42:55.759Z,100.88
2022-12-03T16:45:33.359Z,99.78
2022-12-03T16:48:01.458Z,103.15
2022-12-03T16:50:43.546Z,106.05
2022-12-03T16:53:10.410Z,110.68
2022-12-03T16:55:37.203Z,103.47
2022-12-03T16:58:04.030Z,105.28
2022-12-03T17:00:30.838Z,87.32
2022-12-03T17:02:57.694Z,100.07
2022-12-03T17:05:24.592Z,106.72
2022-12-03T17:07:51.490Z,109.25
2022-12-03T17:10:18.441Z,114.50
2022-12-03T17:15:32.597Z,111.03
2022-12-03T17:17:59.596Z,113.05
2022-12-03T17:20:26.410Z,111.85
2022-12-03T17:22:53.197Z,111.13
2022-12-03T17:25:19.976Z,108.63
2022-12-03T17:27:46.762Z,113.25
2022-12-03T17:30:13.756Z,112.60
2022-12-03T17:32:40.718Z,107.97
2022-12-03T17:35:08.972Z,102.50
2022-12-03T17:37:36.401Z,107.30
2022-12-03T17:40:05.623Z,116.57
2022-12-03T17:42:32.504Z,119.22
2022-12-03T17:44:59.317Z,117.53
2022-12-03T17:47:26.077Z,114.93
2022-12-03T17:49:53.054Z,125.63
2022-12-03T17:52:20.199Z,129.70
2022-12-03T17:55:09.683Z,120.13
2022-12-03T17:57:33.735Z,113.35
2022-12-03T18:00:00.504Z,114.80
2022-12-03T18:02:27.377Z,118.97
2022-12-03T18:04:54.164Z,113.47
2022-12-03T18:07:20.956Z,114.28
2022-12-03T18:09:47.713Z,111.07
2022-12-03T18:12:14.642Z,109.13
2022-12-03T18:14:41.448Z,115.22
2022-12-03T18:17:08.212Z,110.50
2022-12-03T18:19:35.024Z,120.10
2022-12-03T18:22:01.847Z,106.25
2022-12-03T18:24:29.622Z,108.35
2022-12-03T18:26:56.603Z,105.20
2022-12-03T18:29:23.425Z,103.85
2022-12-03T18:31:50.238Z,112.50
2022-12-03T18:34:17.035Z,94.07
2022-12-03T18:36:43.946Z,116.82
2022-12-03T18:39:26.561Z,97.95
2022-12-03T18:41:54.144Z,85.88
2022-12-03T18:44:21.148Z,96.93
2022-12-03T18:46:55.399Z,85.70
2022-12-03T18:49:22.550Z,85.35
2022-12-03T18:51:53.349Z,90.80
2022-12-03T18:54:24.392Z,85.63
2022-12-03T18:56:55.530Z,89.43
2022-12-03T18:59:22.270Z,88.55
2022-12-03T19:02:54.353Z,90.95
2022-12-03T19:05:13.238Z,87.35
2022-12-03T19:07:40.107Z,101.53
2022-12-03T19:10:07.622Z,95.78
2022-12-03T19:12:34.371Z,89.82
2022-12-03T19:15:01.842Z,82.53
2022-12-03T19:17:28.679Z,88.35
2022-12-03T19:19:55.879Z,85.55
2022-12-03T19:22:23.357Z,91.00
2022-12-03T19:24:50.733Z,92.28
2022-12-03T19:27:18.014Z,89.35
2022-12-03T19:29:48.593Z,84.25
2022-12-03T19:32:15.563Z,89.95
2022-12-03T19:34:42.432Z,77.22
2022-12-03T19:37:20.667Z,80.78
2022-12-03T19:40:00.573Z,92.03
2022-12-03T19:42:33.896Z,85.00
2022-12-03T19:45:11.547Z,88.22
2022-12-03T19:47:47.168Z,95.90
2022-12-03T19:50:36.370Z,92.38
2022-12-03T19:53:03.236Z,95.70
2022-12-03T19:55:30.025Z,104.38
2022-12-03T19:57:56.811Z,109.82
2022-12-03T20:00:23.712Z,103.43
2022-12-03T20:02:50.923Z,111.88
2022-12-03T20:05:17.875Z,103.15
2022-12-03T20:07:46.799Z,112.82
2022-12-03T20:10:16.913Z,96.65
2022-12-03T20:12:46.685Z,95.65
2022-12-03T20:15:14.004Z,108.72
2022-12-03T20:17:40.837Z,103.80
2022-12-03T20:20:08.323Z,111.47
2022-12-03T20:22:35.144Z,97.95
2022-12-03T20:25:03.909Z,105.55
2022-12-03T20:27:31.791Z,86.07
2022-12-03T20:29:58.601Z,91.07
2022-12-03T20:32:25.362Z,97.43
2022-12-03T20:34:52.138Z,100.13
2022-12-03T20:37:18.882Z,98.40
2022-12-03T20:39:45.801Z,96.10
2022-12-03T20:42:12.534Z,97.25
2022-12-03T20:44:39.280Z,92.78
2022-12-03T20:47:06.618Z,97.30
2022-12-03T20:49:33.478Z,93.07
2022-12-03T20:52:04.388Z,104.05
2022-12-03T20:54:31.539Z,89.45
2022-12-03T20:56:58.298Z,89.13
2022-12-03T20:59:25.089Z,86.40
2022-12-03T21:01:52.003Z,93.28
2022-12-03T21:04:18.898Z,98.00
2022-12-03T21:06:46.089Z,100.15
2022-12-03T21:09:13.083Z,88.70
2022-12-03T21:11:42.364Z,95.57
2022-12-03T21:14:10.885Z,92.05
2022-12-03T21:17:06.578Z,97.78
2022-12-03T21:19:26.843Z,95.80
2022-12-03T21:21:53.701Z,99.15
2022-12-03T21:24:20.888Z,85.00
2022-12-03T21:26:47.733Z,95.30
2022-12-03T21:29:14.471Z,91.03
2022-12-03T21:31:41.267Z,91.30
2022-12-03T21:34:08.962Z,86.65
2022-12-03T21:36:35.885Z,87.97
2022-12-03T21:39:02.810Z,81.70
2022-12-03T21:41:29.590Z,97.47
2022-12-03T21:43:56.366Z,87.72
2022-12-03T21:47:10.546Z,82.03
2022-12-03T21:49:09.986Z,82.45
2022-12-03T21:51:36.898Z,72.32
2022-12-03T21:54:03.772Z,76.90
2022-12-03T21:56:32.010Z,71.97
2022-12-03T21:58:58.768Z,84.32
2022-12-03T22:01:25.848Z,89.88
2022-12-03T22:03:52.767Z,79.07
2022-12-03T22:06:19.880Z,77.57
2022-12-03T22:08:47.251Z,78.53
2022-12-03T22:11:17.833Z,74.70
2022-12-03T22:13:45.140Z,83.78
2022-12-03T22:16:14.956Z,83.00
2022-12-03T22:18:42.728Z,77.53
2022-12-03T22:21:14.634Z,82.28
2022-12-03T22:23:41.830Z,77.20
2022-12-03T22:26:11.974Z,80.43
2022-12-03T22:28:42.055Z,78.65
2022-12-03T22:31:10.518Z,76.60
2022-12-03T22:33:38.025Z,80.22
2022-12-03T22:36:08.126Z,70.07
2022-12-03T22:38:35.289Z,77.32
2022-12-03T22:41:09.405Z,77.53
2022-12-03T22:43:39.490Z,78.63
2022-12-03T22:46:08.934Z,73.30
2022-12-03T22:48:36.710Z,78.78
2022-12-03T22:51:04.335Z,79.25
2022-12-03T22:53:31.119Z,78.78
2022-12-03T22:56:00.269Z,74.78
2022-12-03T22:58:28.408Z,70.25
2022-12-03T23:01:01.257Z,69.95
2022-12-03T23:03:29.586Z,82.22
2022-12-03T23:05:56.750Z,67.55
2022-12-03T23:08:23.633Z,76.22
2022-12-03T23:10:52.586Z,77.90
2022-12-03T23:13:20.676Z,74.80
2022-12-03T23:15:52.204Z,71.03
2022-12-03T23:18:20.082Z,68.15
2022-12-03T23:20:49.124Z,67.40
2022-12-03T23:23:17.098Z,70.65
2022-12-03T23:25:44.323Z,67.03
2022-12-03T23:28:12.565Z,68.55
2022-12-03T23:30:40.238Z,66.45
2022-12-03T23:33:07.147Z,61.55
2022-12-03T23:35:34.367Z,79.28
2022-12-03T23:38:01.212Z,74.22
2022-12-03T23:40:27.983Z,75.40
2022-12-03T23:42:55.107Z,69.22
2022-12-03T23:45:21.883Z,61.50
2022-12-03T23:47:50.461Z,74.72
2022-12-03T23:52:47.122Z,61.00
2022-12-03T23:55:13.902Z,68.40
2022-12-03T23:57:40.971Z,66.60
